Time;durP1;ratioP1;P1;durP2;ratioP2;P2;SDS_P1;SDS_P2;PMS_P1;PMS_P2;Temp;Humidity;BMP_temperature;BMP_pressure;BME280_temperature;BME280_humidity;BME280_pressure;Samples;Min_cycle;Max_cycle;Signal;HPM_P1;HPM_P2
2021/07/07 00:01:28;;;;;;;8.15;3.00;;;14.50;89.30;;;;;;5013232;28;20033;-50
2021/07/07 00:03:53;;;;;;;7.82;2.60;;;14.50;89.20;;;;;;5015229;28;20510;-51
2021/07/07 00:06:19;;;;;;;8.13;2.97;;;14.50;89.20;;;;;;5016553;28;20042;-52
2021/07/07 00:08:45;;;;;;;4.70;2.95;;;14.50;89.40;;;;;;4970306;28;20078;-49
2021/07/07 00:11:11;;;;;;;9.13;3.38;;;14.40;89.50;;;;;;5016358;28;20073;-50
2021/07/07 00:13:37;;;;;;;12.05;3.38;;;14.40;89.80;;;;;;5016143;28;20041;-49
2021/07/07 00:16:03;;;;;;;8.15;3.30;;;14.40;90.00;;;;;;5015544;28;20046;-54
2021/07/07 00:18:28;;;;;;;5.32;3.13;;;14.40;90.00;;;;;;5016265;28;20095;-52
2021/07/07 00:20:56;;;;;;;7.25;3.25;;;14.30;90.10;;;;;;5015880;28;20444;-48
2021/07/07 00:23:24;;;;;;;8.93;3.05;;;14.30;90.10;;;;;;5015403;28;20038;-49
2021/07/07 00:25:50;;;;;;;10.43;3.38;;;14.30;90.20;;;;;;5014522;28;20041;-55
2021/07/07 00:28:16;;;;;;;9.77;3.40;;;14.30;90.20;;;;;;5001925;28;20050;-53
2021/07/07 00:30:42;;;;;;;8.93;3.40;;;14.30;90.30;;;;;;5014063;28;20042;-49
2021/07/07 00:33:08;;;;;;;7.90;3.10;;;14.40;90.40;;;;;;5014945;28;20050;-52
2021/07/07 00:35:34;;;;;;;4.85;2.95;;;14.30;90.50;;;;;;5010560;28;20403;-50
2021/07/07 00:38:01;;;;;;;13.77;3.33;;;14.30;90.50;;;;;;5006768;28;20038;-49
2021/07/07 00:40:26;;;;;;;9.27;3.47;;;14.30;90.60;;;;;;5015300;28;20561;-48
2021/07/07 00:42:52;;;;;;;9.63;3.67;;;14.30;90.70;;;;;;5015266;28;20037;-49
2021/07/07 00:45:20;;;;;;;8.05;3.78;;;14.30;90.80;;;;;;5014457;28;20432;-50
2021/07/07 00:47:46;;;;;;;7.05;3.47;;;14.30;90.90;;;;;;4997195;28;20140;-48
2021/07/07 00:50:13;;;;;;;8.85;3.70;;;14.30;91.10;;;;;;5018274;28;20042;-52
2021/07/07 00:52:40;;;;;;;7.35;3.58;;;14.30;91.20;;;;;;5023927;28;20482;-51
2021/07/07 00:55:10;;;;;;;5.55;3.45;;;14.30;91.20;;;;;;4994543;28;20038;-51
2021/07/07 00:57:36;;;;;;;8.18;3.97;;;14.40;91.40;;;;;;5014595;28;20034;-50
2021/07/07 01:00:11;;;;;;;8.95;3.70;;;14.40;91.40;;;;;;5014003;28;20033;-49
2021/07/07 01:02:38;;;;;;;11.10;3.95;;;14.40;91.40;;;;;;5014594;28;20077;-50
2021/07/07 01:05:08;;;;;;;9.27;3.85;;;14.50;91.30;;;;;;5013730;28;20407;-50
2021/07/07 01:07:35;;;;;;;7.93;3.58;;;14.50;91.30;;;;;;5013894;28;20038;-50
2021/07/07 01:10:02;;;;;;;12.63;3.75;;;14.50;91.40;;;;;;5007029;28;20045;-50
2021/07/07 01:12:29;;;;;;;10.43;3.55;;;14.50;91.40;;;;;;5014396;28;20034;-54
2021/07/07 01:14:55;;;;;;;10.40;3.97;;;14.50;91.40;;;;;;5018589;28;20041;-52
2021/07/07 01:17:23;;;;;;;8.23;3.60;;;14.50;91.30;;;;;;5017693;28;20038;-53
2021/07/07 01:19:49;;;;;;;12.68;3.92;;;14.50;91.40;;;;;;5019009;28;20034;-52
2021/07/07 01:22:15;;;;;;;9.60;3.78;;;14.50;91.20;;;;;;5013703;28;20052;-53
2021/07/07 01:24:41;;;;;;;8.40;3.67;;;14.60;91.30;;;;;;5012378;28;20053;-52
2021/07/07 01:27:07;;;;;;;8.90;4.07;;;14.70;91.10;;;;;;5013057;28;20581;-49
2021/07/07 01:29:32;;;;;;;7.10;3.95;;;14.70;90.90;;;;;;5012976;28;20038;-51
2021/07/07 01:31:59;;;;;;;9.38;3.40;;;14.70;90.80;;;;;;5013656;28;20392;-52
2021/07/07 01:34:25;;;;;;;9.30;3.60;;;14.70;90.90;;;;;;4995558;28;20050;-50
2021/07/07 01:36:51;;;;;;;10.10;3.60;;;14.70;90.70;;;;;;5013133;28;20045;-52
2021/07/07 01:39:17;;;;;;;8.23;3.55;;;14.70;90.70;;;;;;5013518;28;20486;-51
2021/07/07 01:41:42;;;;;;;10.10;4.22;;;14.70;90.80;;;;;;5013423;28;20134;-49
2021/07/07 01:44:08;;;;;;;8.90;3.42;;;14.70;90.80;;;;;;5012321;28;20529;-53
2021/07/07 01:46:34;;;;;;;7.57;3.65;;;14.70;90.90;;;;;;5013001;28;20049;-51
2021/07/07 01:49:00;;;;;;;8.50;3.90;;;14.60;91.00;;;;;;5013104;28;20046;-52
2021/07/07 01:51:26;;;;;;;6.95;3.55;;;14.60;91.10;;;;;;5027617;28;20066;-51
2021/07/07 01:53:51;;;;;;;7.80;3.67;;;14.60;91.40;;;;;;5013228;28;20122;-52
2021/07/07 01:56:18;;;;;;;8.13;3.92;;;14.50;91.30;;;;;;5013858;28;20038;-49
2021/07/07 01:58:44;;;;;;;6.75;4.05;;;14.50;91.40;;;;;;5011254;28;20049;-51
2021/07/07 02:01:11;;;;;;;6.47;3.88;;;14.50;91.60;;;;;;5013249;28;20124;-53
2021/07/07 02:03:37;;;;;;;8.73;4.18;;;14.40;91.60;;;;;;5016701;28;20127;-52
2021/07/07 02:06:03;;;;;;;10.18;4.25;;;14.50;91.80;;;;;;4985935;28;20070;-51
2021/07/07 02:08:29;;;;;;;10.27;4.32;;;14.50;91.90;;;;;;5003839;28;20064;-52
2021/07/07 02:10:55;;;;;;;8.55;4.18;;;14.40;91.80;;;;;;5012711;28;20095;-51
2021/07/07 02:13:21;;;;;;;7.28;4.20;;;14.40;91.90;;;;;;5012464;28;20510;-51
2021/07/07 02:15:48;;;;;;;8.80;4.63;;;14.40;92.00;;;;;;5012020;28;20087;-52
2021/07/07 02:18:14;;;;;;;10.02;3.92;;;14.40;92.00;;;;;;5010285;28;20072;-51
2021/07/07 02:20:42;;;;;;;8.48;3.88;;;14.40;92.10;;;;;;5021490;28;20076;-50
2021/07/07 02:23:10;;;;;;;10.02;4.20;;;14.40;92.20;;;;;;5012973;28;20132;-53
2021/07/07 02:25:38;;;;;;;10.05;4.53;;;14.30;92.20;;;;;;5011881;28;20061;-49
2021/07/07 02:28:05;;;;;;;9.38;3.95;;;14.30;92.30;;;;;;5007625;28;20048;-52
2021/07/07 02:30:34;;;;;;;7.07;4.22;;;14.20;92.30;;;;;;5007708;28;20064;-54
2021/07/07 02:33:01;;;;;;;9.32;3.95;;;14.30;92.30;;;;;;5004070;28;20050;-51
2021/07/07 02:35:32;;;;;;;9.90;4.25;;;14.30;92.40;;;;;;5018653;28;20569;-52
2021/07/07 02:37:58;;;;;;;5.55;3.90;;;14.30;92.40;;;;;;5017579;28;20095;-54
2021/07/07 02:40:26;;;;;;;7.35;4.15;;;14.20;92.30;;;;;;5011272;28;20042;-53
2021/07/07 02:42:52;;;;;;;8.82;3.92;;;14.30;92.50;;;;;;5010863;28;20046;-52
2021/07/07 02:45:20;;;;;;;8.20;4.07;;;14.20;92.40;;;;;;5014325;28;20061;-53
2021/07/07 02:47:46;;;;;;;7.05;4.10;;;14.20;92.40;;;;;;5014526;28;20042;-54
2021/07/07 02:50:14;;;;;;;9.32;4.20;;;14.20;92.50;;;;;;5013151;28;20045;-50
2021/07/07 02:52:42;;;;;;;6.38;3.65;;;14.20;92.50;;;;;;5008719;28;20129;-54
2021/07/07 02:55:09;;;;;;;8.43;3.78;;;14.10;92.50;;;;;;5005676;28;20046;-54
2021/07/07 02:57:56;;;;;;;7.88;4.30;;;14.20;92.60;;;;;;4998955;28;20030;-53
2021/07/07 03:00:28;;;;;;;9.60;4.35;;;14.20;92.70;;;;;;5009754;28;20038;-52
2021/07/07 03:02:56;;;;;;;12.07;4.30;;;14.20;92.50;;;;;;5011447;28;20049;-51
2021/07/07 03:05:22;;;;;;;8.52;4.38;;;14.20;92.50;;;;;;5004727;28;20073;-54
2021/07/07 03:07:47;;;;;;;5.93;3.88;;;14.20;92.60;;;;;;5008034;28;20086;-51
2021/07/07 03:10:13;;;;;;;6.72;4.20;;;14.10;92.60;;;;;;5013962;28;20413;-53
2021/07/07 03:12:39;;;;;;;7.32;3.85;;;14.10;92.60;;;;;;5014866;28;20092;-49
2021/07/07 03:15:06;;;;;;;5.93;3.75;;;14.10;92.50;;;;;;5011138;28;20046;-51
2021/07/07 03:17:32;;;;;;;10.65;4.20;;;14.10;92.50;;;;;;5009680;28;20042;-53
2021/07/07 03:19:58;;;;;;;10.73;4.15;;;14.00;92.60;;;;;;5008645;28;20085;-50
2021/07/07 03:22:24;;;;;;;11.50;4.03;;;14.00;92.70;;;;;;5003982;28;20514;-51
2021/07/07 03:24:50;;;;;;;8.50;3.97;;;14.00;92.80;;;;;;5005480;28;20042;-51
2021/07/07 03:27:16;;;;;;;7.55;4.13;;;14.00;92.80;;;;;;5004672;28;20053;-54
2021/07/07 03:29:41;;;;;;;11.63;3.92;;;14.00;92.70;;;;;;5011269;28;20042;-53
2021/07/07 03:32:07;;;;;;;7.65;3.80;;;14.00;92.70;;;;;;5018285;28;20045;-54
2021/07/07 03:34:33;;;;;;;7.53;3.70;;;14.10;92.80;;;;;;5008916;28;20131;-51
2021/07/07 03:36:59;;;;;;;9.55;3.95;;;14.10;92.90;;;;;;5010203;28;20434;-53
2021/07/07 03:39:27;;;;;;;6.63;3.80;;;14.00;92.70;;;;;;5011220;28;20093;-51
2021/07/07 03:41:53;;;;;;;6.20;3.85;;;14.00;92.80;;;;;;5011366;28;20046;-51
2021/07/07 03:44:19;;;;;;;8.13;3.97;;;14.10;92.70;;;;;;5002408;28;20050;-52
2021/07/07 03:46:45;;;;;;;8.48;3.80;;;14.10;92.70;;;;;;5010934;28;20101;-53
2021/07/07 03:49:11;;;;;;;11.75;4.68;;;14.10;92.70;;;;;;5011106;28;20056;-53
2021/07/07 03:51:37;;;;;;;6.18;3.88;;;14.10;92.70;;;;;;5005738;28;20113;-51
2021/07/07 03:54:02;;;;;;;7.85;3.90;;;14.10;92.70;;;;;;5002340;28;20038;-51
2021/07/07 03:56:29;;;;;;;10.65;4.03;;;14.10;92.80;;;;;;5006293;28;20049;-54
2021/07/07 03:58:55;;;;;;;9.43;3.95;;;14.10;92.70;;;;;;5010623;28;20044;-53
2021/07/07 04:01:20;;;;;;;9.25;4.40;;;14.00;92.80;;;;;;5023194;28;20521;-51
2021/07/07 04:03:46;;;;;;;13.02;4.95;;;14.10;92.80;;;;;;5011744;28;20045;-54
2021/07/07 04:06:12;;;;;;;8.68;4.22;;;14.10;92.70;;;;;;5014802;28;20069;-52
2021/07/07 04:08:38;;;;;;;7.10;4.35;;;14.10;92.70;;;;;;5008665;28;20128;-52
2021/07/07 04:11:05;;;;;;;9.73;4.43;;;14.10;92.70;;;;;;5009426;28;20053;-52
2021/07/07 04:13:31;;;;;;;8.82;4.53;;;14.10;92.60;;;;;;5010426;28;20072;-52
2021/07/07 04:15:57;;;;;;;9.65;4.50;;;14.10;92.70;;;;;;5008827;28;20034;-50
2021/07/07 04:18:23;;;;;;;9.82;5.05;;;14.00;92.70;;;;;;5009354;28;20091;-53
2021/07/07 04:20:49;;;;;;;8.43;4.95;;;14.00;92.90;;;;;;5010663;28;20073;-53
2021/07/07 04:23:16;;;;;;;13.60;5.75;;;14.10;92.80;;;;;;5011127;28;20228;-54
2021/07/07 04:25:42;;;;;;;11.25;4.82;;;14.00;92.80;;;;;;4992391;28;20054;-53
2021/07/07 04:28:09;;;;;;;7.47;4.70;;;14.10;92.90;;;;;;5012058;28;20398;-51
2021/07/07 04:30:35;;;;;;;8.93;4.75;;;14.20;92.70;;;;;;4995730;28;20554;-55
2021/07/07 04:33:02;;;;;;;11.60;5.30;;;14.10;92.90;;;;;;5014034;28;20046;-52
2021/07/07 04:35:27;;;;;;;11.65;5.32;;;14.10;92.80;;;;;;5011927;28;20556;-51
2021/07/07 04:37:54;;;;;;;11.98;5.75;;;14.10;93.00;;;;;;5013006;28;20045;-54
2021/07/07 04:40:21;;;;;;;10.13;5.25;;;14.20;93.10;;;;;;5014156;28;20041;-53
2021/07/07 04:42:48;;;;;;;14.18;5.43;;;14.20;93.00;;;;;;5013838;28;20044;-54
2021/07/07 04:45:14;;;;;;;11.13;5.55;;;14.30;93.00;;;;;;5023877;28;20037;-53
2021/07/07 04:47:40;;;;;;;10.95;5.45;;;14.30;93.20;;;;;;5020147;28;20038;-51
2021/07/07 04:50:10;;;;;;;6.07;4.85;;;14.30;93.10;;;;;;5013494;28;20037;-50
2021/07/07 04:52:37;;;;;;;7.43;5.20;;;14.40;93.10;;;;;;5014360;28;20038;-52
2021/07/07 04:55:05;;;;;;;8.15;5.00;;;14.40;93.10;;;;;;5012538;28;20120;-53
2021/07/07 04:57:40;;;;;;;9.07;5.10;;;14.40;93.00;;;;;;5013938;28;20038;-51
2021/07/07 05:00:13;;;;;;;9.43;4.95;;;14.40;93.00;;;;;;5008061;28;20066;-51
2021/07/07 05:02:42;;;;;;;9.25;4.78;;;14.50;92.90;;;;;;5014205;28;20038;-49
2021/07/07 05:05:09;;;;;;;9.70;4.95;;;14.60;92.70;;;;;;5010014;28;20107;-51
2021/07/07 05:07:34;;;;;;;7.63;4.93;;;14.70;92.60;;;;;;5013886;28;20041;-52
2021/07/07 05:10:02;;;;;;;10.55;5.20;;;14.80;92.60;;;;;;4995223;28;20049;-50
2021/07/07 05:12:27;;;;;;;8.52;4.35;;;14.90;92.70;;;;;;5011830;28;20121;-53
2021/07/07 05:14:53;;;;;;;9.63;4.53;;;15.10;92.70;;;;;;5011415;28;20136;-53
2021/07/07 05:17:19;;;;;;;6.43;4.10;;;15.40;92.10;;;;;;5013623;28;20026;-53
2021/07/07 05:19:46;;;;;;;7.78;5.00;;;15.60;91.80;;;;;;5012269;28;20045;-53
2021/07/07 05:22:12;;;;;;;6.78;4.28;;;15.80;91.30;;;;;;5013325;28;20030;-53
2021/07/07 05:24:38;;;;;;;6.82;4.22;;;16.00;90.90;;;;;;5012957;28;20112;-53
2021/07/07 05:27:04;;;;;;;6.78;4.13;;;16.00;90.60;;;;;;5013153;28;20475;-52
2021/07/07 05:29:30;;;;;;;10.18;4.70;;;16.00;90.70;;;;;;5021165;28;20053;-49
2021/07/07 05:31:55;;;;;;;7.75;4.30;;;16.00;90.60;;;;;;5025904;28;20046;-52
2021/07/07 05:34:21;;;;;;;8.23;4.13;;;15.90;90.60;;;;;;5010640;28;20196;-52
2021/07/07 05:36:47;;;;;;;7.45;3.92;;;15.80;90.80;;;;;;5012917;28;20116;-50
2021/07/07 05:39:15;;;;;;;9.75;4.03;;;15.80;91.00;;;;;;5007543;28;20121;-51
2021/07/07 05:41:43;;;;;;;8.98;3.85;;;15.80;91.00;;;;;;5005506;28;20570;-47
2021/07/07 05:44:09;;;;;;;11.82;4.28;;;15.80;90.80;;;;;;5010950;28;20044;-50
2021/07/07 05:46:35;;;;;;;8.60;4.38;;;15.80;91.00;;;;;;5012302;28;20129;-53
2021/07/07 05:49:02;;;;;;;8.13;4.45;;;15.80;91.00;;;;;;5011347;28;20048;-51
2021/07/07 05:51:27;;;;;;;9.30;4.68;;;15.80;91.20;;;;;;5012548;28;20041;-51
2021/07/07 05:53:54;;;;;;;9.00;4.57;;;15.80;91.20;;;;;;5012949;28;20045;-53
2021/07/07 05:56:19;;;;;;;9.95;4.72;;;15.90;91.10;;;;;;5003500;28;20065;-50
2021/07/07 05:58:46;;;;;;;7.88;5.15;;;15.90;91.00;;;;;;5012539;28;20074;-52
2021/07/07 06:01:13;;;;;;;11.02;5.10;;;15.80;91.10;;;;;;5011965;28;20453;-51
2021/07/07 06:03:39;;;;;;;9.18;5.25;;;15.80;91.30;;;;;;5012333;28;20107;-51
2021/07/07 06:06:06;;;;;;;8.27;4.68;;;15.80;91.20;;;;;;5011016;28;20053;-48
2021/07/07 06:08:34;;;;;;;11.52;4.70;;;15.90;91.10;;;;;;5010730;28;20498;-51
2021/07/07 06:11:00;;;;;;;7.10;5.32;;;15.90;91.20;;;;;;5012488;28;20042;-52
2021/07/07 06:13:27;;;;;;;9.02;5.25;;;16.00;91.10;;;;;;5012118;28;20042;-52
2021/07/07 06:15:53;;;;;;;8.88;5.32;;;15.90;91.10;;;;;;5016722;28;20041;-51
2021/07/07 06:18:18;;;;;;;12.00;5.47;;;16.00;91.10;;;;;;5019282;28;20402;-50
2021/07/07 06:20:44;;;;;;;10.38;5.30;;;16.00;91.40;;;;;;5030610;28;20556;-50
2021/07/07 06:23:10;;;;;;;8.60;5.22;;;16.00;91.30;;;;;;5020922;28;20045;-50
2021/07/07 06:25:36;;;;;;;11.63;5.78;;;16.10;91.30;;;;;;5027848;28;20038;-51
2021/07/07 06:28:03;;;;;;;8.98;5.32;;;16.20;91.20;;;;;;5031741;28;20038;-51
2021/07/07 06:30:29;;;;;;;8.57;5.03;;;16.30;91.20;;;;;;5012463;28;20068;-50
2021/07/07 06:32:58;;;;;;;11.98;5.25;;;16.30;91.10;;;;;;5030283;28;20069;-51
2021/07/07 06:35:25;;;;;;;12.25;5.88;;;16.40;91.10;;;;;;5005215;28;20044;-51
2021/07/07 06:37:54;;;;;;;11.00;5.60;;;16.40;90.90;;;;;;5008546;28;20046;-53
2021/07/07 06:40:20;;;;;;;11.13;5.32;;;16.50;90.80;;;;;;5010347;28;20048;-50
2021/07/07 06:42:47;;;;;;;9.43;5.10;;;16.60;90.80;;;;;;5009538;28;20044;-50
2021/07/07 06:45:14;;;;;;;12.95;5.97;;;16.60;90.70;;;;;;5011637;28;20560;-48
2021/07/07 06:47:44;;;;;;;10.35;5.50;;;16.70;90.40;;;;;;5004528;28;20038;-53
2021/07/07 06:50:12;;;;;;;10.27;5.10;;;16.70;90.40;;;;;;5010608;28;20072;-52
2021/07/07 06:52:39;;;;;;;13.40;5.38;;;16.70;90.30;;;;;;5009557;28;20403;-53
2021/07/07 06:55:07;;;;;;;13.45;5.43;;;16.70;90.30;;;;;;5002741;28;20049;-53
2021/07/07 06:57:35;;;;;;;11.52;5.15;;;16.80;90.40;;;;;;5011797;28;20050;-53
2021/07/07 07:00:13;;;;;;;12.95;5.35;;;16.80;90.50;;;;;;5010338;28;20042;-53
2021/07/07 07:02:40;;;;;;;11.00;5.68;;;16.80;90.50;;;;;;5009693;28;20063;-52
2021/07/07 07:05:08;;;;;;;10.30;5.43;;;16.90;90.30;;;;;;4992576;28;20038;-53
2021/07/07 07:07:34;;;;;;;15.45;5.15;;;16.90;90.30;;;;;;5009961;28;20042;-53
2021/07/07 07:10:00;;;;;;;15.48;4.80;;;17.00;89.70;;;;;;5009674;28;20129;-50
2021/07/07 07:12:27;;;;;;;12.23;5.00;;;17.10;89.40;;;;;;5011430;28;20455;-51
2021/07/07 07:14:53;;;;;;;10.20;4.70;;;17.10;89.50;;;;;;5010642;28;20050;-53
2021/07/07 07:17:21;;;;;;;9.30;4.50;;;17.10;89.80;;;;;;5013582;28;20050;-53
2021/07/07 07:19:47;;;;;;;11.93;4.55;;;17.20;89.20;;;;;;5016033;28;20502;-52
2021/07/07 07:22:13;;;;;;;10.15;4.85;;;17.20;89.40;;;;;;5011921;28;20053;-51
2021/07/07 07:24:38;;;;;;;16.33;5.25;;;17.30;88.70;;;;;;4993885;28;20046;-54
2021/07/07 07:27:05;;;;;;;9.10;4.85;;;17.30;90.00;;;;;;5011476;28;20103;-54
2021/07/07 07:29:31;;;;;;;15.10;4.68;;;17.30;89.80;;;;;;5011297;28;20128;-54
2021/07/07 07:31:57;;;;;;;7.40;4.68;;;17.30;90.00;;;;;;4997784;28;20516;-54
2021/07/07 07:34:23;;;;;;;12.43;4.60;;;17.40;90.00;;;;;;5010599;28;20041;-53
2021/07/07 07:36:51;;;;;;;11.93;4.47;;;17.50;89.60;;;;;;5012100;28;20160;-54
2021/07/07 07:39:23;;;;;;;13.40;4.72;;;17.50;89.70;;;;;;4999877;28;20046;-52
2021/07/07 07:41:51;;;;;;;8.85;4.40;;;17.60;89.40;;;;;;5010734;28;20046;-51
2021/07/07 07:44:18;;;;;;;13.27;4.60;;;17.60;88.80;;;;;;5011772;28;20567;-51
2021/07/07 07:46:44;;;;;;;9.48;4.40;;;17.70;89.10;;;;;;5012783;28;20495;-49
2021/07/07 07:49:13;;;;;;;10.57;4.57;;;17.70;89.40;;;;;;5011677;28;20052;-51
2021/07/07 07:51:38;;;;;;;12.20;4.32;;;17.70;89.60;;;;;;5011379;28;20034;-51
2021/07/07 07:54:04;;;;;;;13.05;4.32;;;17.70;88.30;;;;;;5018263;28;20037;-50
2021/07/07 07:56:30;;;;;;;10.38;4.22;;;17.80;87.60;;;;;;5015654;28;20050;-51
2021/07/07 07:58:56;;;;;;;10.32;4.35;;;17.80;87.30;;;;;;5010463;28;20092;-54
2021/07/07 08:01:24;;;;;;;12.57;4.60;;;17.80;87.50;;;;;;5015359;28;20061;-49
2021/07/07 08:03:50;;;;;;;13.50;4.75;;;17.80;87.80;;;;;;5017088;28;20048;-54
2021/07/07 08:06:16;;;;;;;9.18;4.40;;;17.80;87.50;;;;;;5013064;28;20042;-53
2021/07/07 08:08:41;;;;;;;12.52;4.63;;;17.80;88.20;;;;;;5014406;28;20129;-53
2021/07/07 08:11:07;;;;;;;14.45;4.78;;;17.90;87.50;;;;;;5013699;28;20037;-51
2021/07/07 08:13:33;;;;;;;9.82;4.32;;;17.90;87.60;;;;;;5021402;28;20033;-53
2021/07/07 08:16:00;;;;;;;7.70;3.72;;;18.00;87.60;;;;;;5021276;28;20502;-52
2021/07/07 08:18:26;;;;;;;8.95;4.25;;;18.00;87.60;;;;;;5024739;28;20036;-54
2021/07/07 08:20:52;;;;;;;11.45;4.70;;;18.10;87.90;;;;;;5025196;28;20046;-52
2021/07/07 08:23:21;;;;;;;11.85;4.93;;;18.30;86.70;;;;;;5011705;28;20694;-55
2021/07/07 08:25:47;;;;;;;7.03;4.10;;;18.40;87.20;;;;;;5010070;28;20410;-53
2021/07/07 08:28:14;;;;;;;13.82;4.88;;;18.70;87.80;;;;;;5026411;28;20041;-51
2021/07/07 08:31:00;;;;;;;12.48;4.55;;;18.90;85.90;;;;;;5019489;28;20469;-53
2021/07/07 08:33:26;;;;;;;13.32;4.68;;;19.10;84.60;;;;;;5024709;28;20045;-53
2021/07/07 08:35:51;;;;;;;12.35;4.53;;;19.20;84.30;;;;;;5023591;28;20486;-53
2021/07/07 08:38:17;;;;;;;11.07;4.47;;;19.40;83.90;;;;;;5024035;28;20091;-54
2021/07/07 08:40:43;;;;;;;14.07;5.50;;;19.40;82.80;;;;;;5025935;28;20585;-54
2021/07/07 08:43:10;;;;;;;9.75;4.38;;;19.50;82.70;;;;;;5022996;28;20062;-54
2021/07/07 08:45:36;;;;;;;9.73;4.35;;;19.60;82.10;;;;;;5027395;28;20091;-52
2021/07/07 08:48:03;;;;;;;16.77;4.68;;;19.70;82.60;;;;;;5020716;28;20398;-51
2021/07/07 08:50:32;;;;;;;17.02;4.80;;;19.80;81.50;;;;;;5021327;28;20049;-51
2021/07/07 08:53:03;;;;;;;11.70;4.38;;;19.90;81.90;;;;;;5026616;28;20417;-53
2021/07/07 08:55:31;;;;;;;11.75;4.25;;;20.00;80.90;;;;;;5001519;28;20099;-52
2021/07/07 08:57:58;;;;;;;9.23;4.47;;;20.10;81.40;;;;;;5008442;28;20053;-51
2021/07/07 09:00:33;;;;;;;10.07;4.28;;;20.30;81.60;;;;;;5004289;28;20049;-53
2021/07/07 09:03:15;;;;;;;13.85;4.28;;;20.30;81.20;;;;;;5007924;28;20088;-54
2021/07/07 09:05:52;;;;;;;10.30;3.97;;;20.50;79.00;;;;;;5014276;28;20124;-52
2021/07/07 09:08:30;;;;;;;7.78;4.03;;;20.60;79.70;;;;;;5007291;28;20450;-52
2021/07/07 09:11:16;;;;;;;12.35;3.72;;;20.60;79.80;;;;;;5010701;28;20480;-53
2021/07/07 09:13:43;;;;;;;11.18;3.70;;;20.80;79.30;;;;;;5008373;28;20045;-56
2021/07/07 09:16:13;;;;;;;9.27;4.25;;;20.80;77.20;;;;;;5007756;28;20121;-50
2021/07/07 09:18:43;;;;;;;10.60;4.60;;;20.80;76.70;;;;;;5008067;28;20056;-51
2021/07/07 09:21:29;;;;;;;7.93;3.67;;;20.80;76.80;;;;;;5010432;28;20041;-49
2021/07/07 09:23:58;;;;;;;8.82;3.28;;;20.80;78.40;;;;;;5007336;28;20042;-52
2021/07/07 09:26:34;;;;;;;8.52;3.67;;;20.80;77.20;;;;;;4999617;28;20451;-48
2021/07/07 09:29:41;;;;;;;8.02;3.33;;;20.90;75.20;;;;;;4994092;28;20045;-52
2021/07/07 09:32:28;;;;;;;9.15;4.18;;;20.90;76.20;;;;;;5006432;28;20054;-49
2021/07/07 09:35:13;;;;;;;12.30;3.78;;;21.00;75.80;;;;;;5002986;28;20047;-49
2021/07/07 09:37:46;;;;;;;9.88;3.60;;;21.00;74.70;;;;;;5004344;28;20049;-53
2021/07/07 09:40:15;;;;;;;7.13;3.10;;;21.10;75.40;;;;;;4995635;28;20625;-51
2021/07/07 09:42:44;;;;;;;8.65;3.42;;;21.00;75.90;;;;;;5007134;28;20042;-50
2021/07/07 09:45:13;;;;;;;8.80;3.35;;;21.10;76.40;;;;;;5006900;28;20053;-51
2021/07/07 09:47:40;;;;;;;10.07;3.10;;;21.20;76.40;;;;;;5007102;28;20060;-52
2021/07/07 09:50:08;;;;;;;10.95;3.22;;;21.20;75.70;;;;;;5007821;28;20285;-52
2021/07/07 09:52:56;;;;;;;7.38;2.80;;;21.30;73.60;;;;;;4992548;28;20146;-49
2021/07/07 09:55:22;;;;;;;11.07;3.53;;;21.40;71.90;;;;;;5006096;28;20049;-51
2021/07/07 09:57:49;;;;;;;11.27;3.25;;;21.30;72.80;;;;;;4975445;28;20504;-49
2021/07/07 10:00:22;;;;;;;8.95;3.13;;;21.30;72.60;;;;;;5009708;28;20407;-50
2021/07/07 10:02:53;;;;;;;12.70;3.58;;;21.30;73.30;;;;;;5007131;28;20321;-54
2021/07/07 10:05:40;;;;;;;6.13;3.10;;;21.40;74.00;;;;;;5005813;28;20063;-54
2021/07/07 10:08:27;;;;;;;8.75;2.67;;;21.50;73.20;;;;;;5007793;28;20446;-51
2021/07/07 10:10:58;;;;;;;8.63;3.35;;;21.50;72.30;;;;;;5010646;28;20490;-48
2021/07/07 10:13:26;;;;;;;8.32;2.78;;;21.40;71.50;;;;;;5000562;28;20080;-53
2021/07/07 10:16:15;;;;;;;7.80;3.20;;;21.40;72.50;;;;;;5000435;28;20046;-52
2021/07/07 10:19:01;;;;;;;6.75;3.22;;;21.30;71.50;;;;;;4995696;28;20483;-54
2021/07/07 10:21:28;;;;;;;8.80;3.20;;;21.40;71.90;;;;;;5026121;28;20069;-56
2021/07/07 10:23:54;;;;;;;9.98;3.38;;;21.50;72.00;;;;;;5006097;28;20033;-52
2021/07/07 10:26:21;;;;;;;6.78;3.03;;;21.70;71.70;;;;;;5015828;28;20347;-54
2021/07/07 10:28:48;;;;;;;10.93;3.20;;;21.80;70.70;;;;;;5006691;28;20457;-49
2021/07/07 10:31:14;;;;;;;11.43;3.30;;;21.80;71.50;;;;;;5012552;28;20052;-55
2021/07/07 10:33:40;;;;;;;11.38;3.45;;;21.80;72.00;;;;;;5014351;28;20045;-53
2021/07/07 10:36:18;;;;;;;11.57;3.13;;;21.90;71.30;;;;;;5015920;28;20030;-54
2021/07/07 10:38:50;;;;;;;10.25;3.17;;;22.00;66.00;;;;;;5015302;28;20044;-49
2021/07/07 10:41:36;;;;;;;9.75;3.35;;;22.00;67.60;;;;;;5016562;28;20037;-53
2021/07/07 10:44:04;;;;;;;12.35;3.10;;;22.00;66.80;;;;;;5014200;28;20049;-51
2021/07/07 10:46:48;;;;;;;7.20;2.90;;;22.00;68.80;;;;;;5024233;28;20725;-52
2021/07/07 10:49:28;;;;;;;11.85;3.40;;;21.90;68.40;;;;;;5016935;28;20560;-57
2021/07/07 10:51:59;;;;;;;6.88;2.97;;;22.00;69.20;;;;;;5011704;28;20038;-52
2021/07/07 10:54:32;;;;;;;10.30;3.30;;;22.00;68.90;;;;;;5008706;28;20403;-56
2021/07/07 10:56:58;;;;;;;;;;;22.00;68.30;;;;;;5017237;28;20556;-55
2021/07/07 10:59:42;;;;;;;14.70;4.10;;;21.90;70.80;;;;;;5014979;28;19924;-53
2021/07/07 11:02:27;;;;;;;8.90;2.88;;;21.90;68.80;;;;;;5008467;28;20037;-55
2021/07/07 11:04:58;;;;;;;8.02;2.90;;;21.90;68.20;;;;;;5011662;28;20045;-53
2021/07/07 11:07:33;;;;;;;10.73;3.25;;;21.80;68.30;;;;;;5015776;28;20041;-52
2021/07/07 11:10:08;;;;;;;7.18;2.70;;;21.80;68.30;;;;;;5012154;28;20057;-53
2021/07/07 11:12:37;;;;;;;6.28;2.50;;;21.80;67.00;;;;;;5007604;28;20072;-51
2021/07/07 11:15:23;;;;;;;6.68;2.45;;;22.00;67.30;;;;;;5006657;28;20430;-55
2021/07/07 11:17:54;;;;;;;8.45;2.63;;;22.10;68.20;;;;;;5006670;28;20117;-52
2021/07/07 11:20:22;;;;;;;10.07;2.65;;;22.40;67.30;;;;;;4989481;28;20085;-53
2021/07/07 11:23:00;;;;;;;7.38;2.55;;;22.50;63.40;;;;;;5009947;28;20033;-54
2021/07/07 11:25:27;;;;;;;7.38;2.30;;;22.50;62.90;;;;;;5020170;28;20105;-54
2021/07/07 11:27:54;;;;;;;6.93;2.70;;;22.50;62.20;;;;;;4993973;28;20049;-54
2021/07/07 11:30:21;;;;;;;10.05;3.20;;;22.70;63.10;;;;;;5014586;28;20449;-53
2021/07/07 11:32:54;;;;;;;8.23;2.60;;;22.80;64.30;;;;;;5014492;28;20591;-54
2021/07/07 11:35:32;;;;;;;8.60;2.63;;;22.90;63.10;;;;;;5005629;28;20041;-53
2021/07/07 11:38:03;;;;;;;6.25;2.53;;;22.90;63.20;;;;;;5005751;28;20129;-51
2021/07/07 11:40:31;;;;;;;6.53;2.40;;;22.70;64.00;;;;;;4983937;28;20131;-53
2021/07/07 11:42:58;;;;;;;7.53;2.80;;;22.40;65.30;;;;;;5010701;28;20596;-51
2021/07/07 11:45:30;;;;;;;16.77;3.40;;;22.20;66.40;;;;;;5008782;28;20676;-53
2021/07/07 11:48:02;;;;;;;;;;;21.80;70.40;;;;;;5011654;28;20037;-52
2021/07/07 11:50:28;;;;;;;7.85;2.92;;;21.50;72.90;;;;;;5006709;28;20007;-54
2021/07/07 11:52:59;;;;;;;7.75;3.22;;;21.10;74.20;;;;;;5007555;28;20034;-53
2021/07/07 11:55:50;;;;;;;9.15;3.22;;;20.70;76.10;;;;;;5011426;28;20042;-50
2021/07/07 11:58:50;;;;;;;9.43;3.50;;;20.30;77.60;;;;;;4995941;28;20069;-55
2021/07/07 12:01:24;;;;;;;5.30;3.00;;;20.10;79.50;;;;;;4998222;28;20093;-52
2021/07/07 12:03:53;;;;;;;8.25;3.60;;;19.80;80.60;;;;;;5011702;28;20045;-51
2021/07/07 12:06:29;;;;;;;8.85;4.05;;;19.60;81.30;;;;;;5018219;28;20041;-53
2021/07/07 12:08:56;;;;;;;10.32;4.25;;;19.50;82.40;;;;;;5012295;28;20049;-52
2021/07/07 12:11:23;;;;;;;8.05;4.28;;;19.30;83.40;;;;;;5014569;28;20083;-53
2021/07/07 12:13:53;;;;;;;8.48;4.10;;;19.20;84.50;;;;;;5022776;28;20303;-51
2021/07/07 12:16:21;;;;;;;6.50;3.45;;;19.00;85.90;;;;;;5015964;28;20042;-53
2021/07/07 12:18:52;;;;;;;9.82;3.97;;;18.80;85.60;;;;;;5019560;28;20041;-52
2021/07/07 12:21:24;;;;;;;9.50;4.07;;;18.70;86.50;;;;;;5014262;28;20470;-53
2021/07/07 12:23:56;;;;;;;6.85;3.85;;;18.50;87.20;;;;;;5012417;28;20564;-48
2021/07/07 12:26:23;;;;;;;6.90;3.65;;;18.40;87.10;;;;;;5013194;28;20069;-51
2021/07/07 12:28:50;;;;;;;6.35;3.60;;;18.40;87.80;;;;;;5021591;28;20033;-54
2021/07/07 12:31:16;;;;;;;9.82;4.15;;;18.40;88.40;;;;;;5018947;28;20033;-52
2021/07/07 12:33:43;;;;;;;8.52;4.38;;;18.50;89.60;;;;;;5019681;28;20098;-48
2021/07/07 12:36:11;;;;;;;7.65;4.47;;;18.70;90.10;;;;;;5022705;28;20037;-51
2021/07/07 12:38:44;;;;;;;8.10;3.75;;;19.00;90.30;;;;;;5014520;28;20090;-52
2021/07/07 12:41:10;;;;;;;8.65;3.38;;;19.40;90.30;;;;;;5008871;28;20045;-55
2021/07/07 12:43:50;;;;;;;7.93;3.53;;;19.70;89.20;;;;;;5010253;28;20037;-48
2021/07/07 12:46:16;;;;;;;7.07;3.17;;;20.00;89.20;;;;;;5021341;28;20037;-51
2021/07/07 12:48:55;;;;;;;6.25;3.45;;;20.30;87.50;;;;;;5012846;28;20038;-51
2021/07/07 12:51:25;;;;;;;5.03;3.42;;;20.50;87.30;;;;;;5017930;28;20045;-52